createdAt,value
2016-04-30T00:00:35.288Z,7.82
2016-04-30T00:01:35.228Z,7.78
2016-04-30T00:02:35.215Z,7.75
2016-04-30T00:03:35.357Z,7.72
2016-04-30T00:04:35.033Z,7.72
2016-04-30T00:05:35.129Z,7.62
2016-04-30T00:06:35.116Z,7.62
2016-04-30T00:07:35.088Z,7.59
2016-04-30T00:08:35.074Z,7.42
2016-04-30T00:09:34.874Z,7.49
2016-04-30T00:10:35.034Z,7.37
2016-04-30T00:11:34.989Z,7.34
2016-04-30T00:12:34.960Z,7.37
2016-04-30T00:13:34.932Z,7.32
2016-04-30T00:14:34.904Z,7.29
2016-04-30T00:15:34.875Z,7.23
2016-04-30T00:16:34.690Z,7.23
2016-04-30T00:17:34.833Z,7.15
2016-04-30T00:18:34.805Z,7.22
2016-04-30T00:19:34.776Z,7.09
2016-04-30T00:20:34.748Z,7.04
2016-04-30T00:21:34.719Z,7.12
2016-04-30T00:22:34.691Z,7.07
2016-04-30T00:23:34.662Z,6.98
2016-04-30T00:24:34.477Z,7.01
2016-04-30T00:25:34.606Z,7.04
2016-04-30T00:26:34.608Z,6.99
2016-04-30T00:27:34.408Z,6.97
2016-04-30T00:28:34.363Z,6.89
2016-04-30T00:29:34.335Z,6.97
2016-04-30T00:30:34.477Z,6.89
2016-04-30T00:31:34.294Z,6.77
2016-04-30T00:32:34.421Z,6.84
2016-04-30T00:33:34.252Z,6.76
2016-04-30T00:34:34.363Z,6.76
2016-04-30T00:35:34.335Z,6.73
2016-04-30T00:36:34.166Z,6.71
2016-04-30T00:37:34.278Z,6.69
2016-04-30T00:38:34.249Z,6.69
2016-04-30T00:39:34.079Z,6.81
2016-04-30T00:40:34.207Z,6.71
2016-04-30T00:41:34.179Z,6.68
2016-04-30T00:42:34.151Z,6.69
2016-04-30T00:43:34.123Z,6.69
2016-04-30T00:44:33.937Z,6.72
2016-04-30T00:45:34.065Z,6.71
2016-04-30T00:46:34.037Z,6.72
2016-04-30T00:47:34.008Z,6.71
2016-04-30T00:48:34.136Z,6.76
2016-04-30T00:49:33.967Z,6.72
2016-04-30T00:50:33.937Z,6.76
2016-04-30T00:51:33.909Z,6.77
2016-04-30T00:52:33.881Z,6.86
2016-04-30T00:53:33.853Z,6.89
2016-04-30T00:54:33.823Z,6.94
2016-04-30T00:55:33.795Z,6.98
2016-04-30T00:56:33.625Z,6.89
2016-04-30T00:57:33.738Z,6.9
2016-04-30T00:58:33.725Z,7.04
2016-04-30T00:59:33.525Z,6.99
2016-04-30T01:00:33.668Z,6.95
2016-04-30T01:01:33.624Z,7.02
2016-04-30T01:02:33.454Z,6.97
2016-04-30T01:03:33.708Z,6.99
2016-04-30T01:04:33.554Z,7.05
2016-04-30T01:05:33.556Z,7.05
2016-04-30T01:06:33.497Z,7.04
2016-04-30T01:07:33.468Z,6.99
2016-04-30T01:08:33.455Z,7.08
2016-04-30T01:09:33.426Z,7.13
2016-04-30T01:10:33.241Z,7.02
2016-04-30T01:11:33.369Z,7.01
2016-04-30T01:12:33.341Z,7.13
2016-04-30T01:13:33.156Z,7.12
2016-04-30T01:14:33.284Z,7.2
2016-04-30T01:15:33.255Z,7.05
2016-04-30T01:16:33.242Z,7.13
2016-04-30T01:17:33.214Z,7.22
2016-04-30T01:18:33.045Z,7.16
2016-04-30T01:19:33.015Z,7.2
2016-04-30T01:20:33.128Z,7.12
2016-04-30T01:21:32.943Z,7.17
2016-04-30T01:22:32.914Z,7.22
2016-04-30T01:23:33.058Z,7.23
2016-04-30T01:24:33.014Z,7.26
2016-04-30T01:25:33.000Z,7.29
2016-04-30T01:26:32.816Z,7.26
2016-04-30T01:27:32.944Z,7.35
2016-04-30T01:28:32.914Z,7.34
2016-04-30T01:29:32.871Z,7.4
2016-04-30T01:30:32.857Z,7.44
2016-04-30T01:31:32.829Z,7.45
2016-04-30T01:32:32.817Z,7.42
2016-04-30T01:33:32.882Z,7.47
2016-04-30T01:34:32.760Z,7.49
2016-04-30T01:35:32.715Z,7.49
2016-04-30T01:36:32.686Z,7.53
2016-04-30T01:37:32.674Z,7.56
2016-04-30T01:38:32.645Z,7.52
2016-04-30T01:39:32.616Z,7.58
2016-04-30T01:40:32.432Z,7.58
2016-04-30T01:41:32.559Z,7.67
2016-04-30T01:42:32.531Z,7.71
2016-04-30T01:43:32.346Z,7.67
2016-04-30T01:44:32.333Z,7.66
2016-04-30T01:45:32.461Z,7.74
2016-04-30T01:46:32.432Z,7.79
2016-04-30T01:47:32.403Z,7.79
2016-04-30T01:48:33.500Z,7.84
2016-04-30T01:49:32.346Z,7.82
2016-04-30T01:50:32.302Z,7.84
2016-04-30T01:51:32.290Z,7.89
2016-04-30T01:52:32.276Z,7.93
2016-04-30T01:53:32.232Z,7.92
2016-04-30T01:54:32.203Z,7.9
2016-04-30T01:55:32.175Z,7.9
2016-04-30T01:56:32.162Z,7.96
2016-04-30T01:57:32.133Z,7.92
2016-04-30T01:58:32.105Z,7.94
2016-04-30T01:59:31.936Z,7.9
2016-04-30T02:00:31.908Z,8.08
2016-04-30T02:01:32.019Z,7.96
2016-04-30T02:02:32.006Z,8.03
2016-04-30T02:03:32.306Z,8.02
2016-04-30T02:04:31.778Z,7.97
2016-04-30T02:05:31.921Z,8.04
2016-04-30T02:06:31.892Z,8
2016-04-30T02:07:31.863Z,8
2016-04-30T02:08:31.851Z,7.97
2016-04-30T02:09:31.807Z,8.12
2016-04-30T02:10:31.793Z,8.03
2016-04-30T02:11:31.749Z,8.03
2016-04-30T02:12:31.737Z,8.02
2016-04-30T02:13:31.708Z,8
2016-04-30T02:14:31.679Z,8
2016-04-30T02:15:31.509Z,8.02
2016-04-30T02:16:31.637Z,8.02
2016-04-30T02:17:31.610Z,8.08
2016-04-30T02:18:32.846Z,7.99
2016-04-30T02:19:31.552Z,7.92
2016-04-30T02:20:31.383Z,7.9
2016-04-30T02:21:31.495Z,7.93
2016-04-30T02:22:31.467Z,7.92
2016-04-30T02:23:31.282Z,7.94
2016-04-30T02:24:31.409Z,7.9
2016-04-30T02:25:31.397Z,7.9
2016-04-30T02:26:31.367Z,7.96
2016-04-30T02:27:31.339Z,8.03
2016-04-30T02:28:31.295Z,8.02
2016-04-30T02:29:31.297Z,7.93
2016-04-30T02:30:31.098Z,7.9
2016-04-30T02:31:31.069Z,7.9
2016-04-30T02:32:31.197Z,7.9
2016-04-30T02:33:31.183Z,7.87
2016-04-30T02:34:31.327Z,7.85
2016-04-30T02:35:31.126Z,7.84
2016-04-30T02:36:31.113Z,7.85
2016-04-30T02:37:31.069Z,7.81
2016-04-30T02:38:30.885Z,7.82
2016-04-30T02:39:31.012Z,7.77
2016-04-30T02:40:30.983Z,7.78
2016-04-30T02:41:30.955Z,7.81
2016-04-30T02:42:30.942Z,7.79
2016-04-30T02:43:30.913Z,7.84
2016-04-30T02:44:30.885Z,7.85
2016-04-30T02:45:30.701Z,7.77
2016-04-30T02:46:30.828Z,7.74
2016-04-30T02:47:30.799Z,7.74
2016-04-30T02:48:30.614Z,7.78
2016-04-30T02:49:30.774Z,7.78
2016-04-30T02:50:30.729Z,7.75
2016-04-30T02:51:30.701Z,7.74
2016-04-30T02:52:30.656Z,7.75
2016-04-30T02:53:30.643Z,7.71
2016-04-30T02:54:30.614Z,7.72
2016-04-30T02:55:30.586Z,7.74
2016-04-30T02:56:30.559Z,7.69
2016-04-30T02:57:30.233Z,7.58
2016-04-30T02:58:30.501Z,7.63
2016-04-30T02:59:30.488Z,7.63
2016-04-30T03:00:30.458Z,7.6
2016-04-30T03:01:30.414Z,7.53
2016-04-30T03:02:30.089Z,7.58
2016-04-30T03:03:30.374Z,7.53
2016-04-30T03:04:30.361Z,7.55
2016-04-30T03:05:30.316Z,7.52
2016-04-30T03:06:30.288Z,7.58
2016-04-30T03:07:30.103Z,7.58
2016-04-30T03:08:30.247Z,7.56
2016-04-30T03:09:30.218Z,7.6
2016-04-30T03:10:30.174Z,7.56
2016-04-30T03:11:30.160Z,7.56
2016-04-30T03:12:29.976Z,7.45
2016-04-30T03:13:30.104Z,7.52
2016-04-30T03:14:30.090Z,7.42
2016-04-30T03:15:30.047Z,7.41
2016-04-30T03:16:30.018Z,7.42
2016-04-30T03:17:29.849Z,7.47
2016-04-30T03:18:29.960Z,7.4
2016-04-30T03:19:29.948Z,7.4
2016-04-30T03:20:29.919Z,7.49
2016-04-30T03:21:29.890Z,7.32
2016-04-30T03:22:29.862Z,7.32
2016-04-30T03:23:29.849Z,7.38
2016-04-30T03:24:29.820Z,7.4
2016-04-30T03:25:29.793Z,7.44
2016-04-30T03:26:29.764Z,7.32
2016-04-30T03:27:29.719Z,7.34
2016-04-30T03:28:29.706Z,7.29
2016-04-30T03:29:29.678Z,7.4
2016-04-30T03:30:29.665Z,7.34
2016-04-30T03:31:29.620Z,7.34
2016-04-30T03:32:29.657Z,7.4
2016-04-30T03:33:29.665Z,7.38
2016-04-30T03:34:29.691Z,7.38
2016-04-30T03:35:29.714Z,7.37
2016-04-30T03:36:29.755Z,7.35
2016-04-30T03:37:29.748Z,7.41
2016-04-30T03:38:29.581Z,7.37
2016-04-30T03:39:29.712Z,7.35
2016-04-30T03:40:29.718Z,7.38
2016-04-30T03:41:29.709Z,7.34
2016-04-30T03:42:29.703Z,7.41
2016-04-30T03:43:29.666Z,7.38
2016-04-30T03:44:29.659Z,7.38
2016-04-30T03:45:29.654Z,7.35
2016-04-30T03:46:29.617Z,7.34
2016-04-30T03:47:29.575Z,7.37
2016-04-30T03:48:29.564Z,7.41
2016-04-30T03:49:29.852Z,7.38
2016-04-30T03:50:29.513Z,7.38
2016-04-30T03:51:29.488Z,7.29
2016-04-30T03:52:29.492Z,7.34
2016-04-30T03:53:29.276Z,7.42
2016-04-30T03:54:29.249Z,7.37
2016-04-30T03:55:29.377Z,7.37
2016-04-30T03:56:29.364Z,7.32
2016-04-30T03:57:29.336Z,7.38
2016-04-30T03:58:29.309Z,7.42
2016-04-30T03:59:29.279Z,7.37
2016-04-30T04:00:29.252Z,7.26
2016-04-30T04:01:29.224Z,7.41
2016-04-30T04:02:29.039Z,7.44
2016-04-30T04:03:29.167Z,7.4
2016-04-30T04:04:29.013Z,7.47
2016-04-30T04:05:28.953Z,7.49
2016-04-30T04:06:29.096Z,7.45
2016-04-30T04:07:29.051Z,7.49
2016-04-30T04:08:29.040Z,7.49
2016-04-30T04:09:28.855Z,7.42
2016-04-30T04:10:28.998Z,7.47
2016-04-30T04:11:28.798Z,7.45
2016-04-30T04:12:28.925Z,7.42
2016-04-30T04:13:28.740Z,7.44
2016-04-30T04:14:28.712Z,7.45
2016-04-30T04:15:28.699Z,7.49
2016-04-30T04:16:28.826Z,7.49
2016-04-30T04:17:28.642Z,7.47
2016-04-30T04:18:28.769Z,7.44
2016-04-30T04:19:28.834Z,7.45
2016-04-30T04:20:28.712Z,7.45
2016-04-30T04:21:28.684Z,7.41
2016-04-30T04:22:28.655Z,7.45
2016-04-30T04:23:28.658Z,7.44
2016-04-30T04:24:28.316Z,7.49
2016-04-30T04:25:28.600Z,7.47
2016-04-30T04:26:28.400Z,7.47
2016-04-30T04:27:28.372Z,7.45
2016-04-30T04:28:28.500Z,7.45
2016-04-30T04:29:28.471Z,7.45
2016-04-30T04:30:28.442Z,7.38
2016-04-30T04:31:28.413Z,7.42
2016-04-30T04:32:28.401Z,7.45
2016-04-30T04:33:28.371Z,7.42
2016-04-30T04:34:29.766Z,7.42
2016-04-30T04:35:28.159Z,7.42
2016-04-30T04:36:28.287Z,7.44
2016-04-30T04:37:28.258Z,7.5
2016-04-30T04:38:28.260Z,7.53
2016-04-30T04:39:28.045Z,7.44
2016-04-30T04:40:28.173Z,7.56
2016-04-30T04:41:28.159Z,7.58
2016-04-30T04:42:28.131Z,7.56
2016-04-30T04:43:28.118Z,7.59
2016-04-30T04:44:28.073Z,7.53
2016-04-30T04:45:28.045Z,7.52
2016-04-30T04:46:27.860Z,7.58
2016-04-30T04:47:27.832Z,7.6
2016-04-30T04:48:27.975Z,7.58
2016-04-30T04:49:27.790Z,7.59
2016-04-30T04:50:27.761Z,7.55
2016-04-30T04:51:27.889Z,7.55
2016-04-30T04:52:27.704Z,7.52
2016-04-30T04:53:27.676Z,7.56
2016-04-30T04:54:27.803Z,7.58
2016-04-30T04:55:27.775Z,7.49
2016-04-30T04:56:27.761Z,7.58
2016-04-30T04:57:27.733Z,7.55
2016-04-30T04:58:27.705Z,7.56
2016-04-30T04:59:27.677Z,7.59
2016-04-30T05:00:27.648Z,7.6
2016-04-30T05:01:27.619Z,7.56
2016-04-30T05:02:27.435Z,7.6
2016-04-30T05:03:27.437Z,7.6
2016-04-30T05:04:27.565Z,7.62
2016-04-30T05:05:27.505Z,7.63
2016-04-30T05:06:27.336Z,7.6
2016-04-30T05:07:27.307Z,7.69
2016-04-30T05:08:27.279Z,7.59
2016-04-30T05:09:27.250Z,7.66
2016-04-30T05:10:27.378Z,7.56
2016-04-30T05:11:27.349Z,7.69
2016-04-30T05:12:27.334Z,7.66
2016-04-30T05:13:27.305Z,7.67
2016-04-30T05:14:27.276Z,7.72
2016-04-30T05:15:27.248Z,7.71
2016-04-30T05:16:27.235Z,7.62
2016-04-30T05:17:27.034Z,7.67
2016-04-30T05:18:27.162Z,7.69
2016-04-30T05:19:27.337Z,7.75
2016-04-30T05:20:27.106Z,7.77
2016-04-30T05:21:26.936Z,7.78
2016-04-30T05:22:27.064Z,7.75
2016-04-30T05:23:26.878Z,7.78
2016-04-30T05:24:26.991Z,7.82
2016-04-30T05:25:26.822Z,7.75
2016-04-30T05:26:26.794Z,7.72
2016-04-30T05:27:26.921Z,7.74
2016-04-30T05:28:26.908Z,7.79
2016-04-30T05:29:26.864Z,7.77
2016-04-30T05:30:26.850Z,7.84
2016-04-30T05:31:26.822Z,7.84
2016-04-30T05:32:26.638Z,7.81
2016-04-30T05:33:26.796Z,7.84
2016-04-30T05:34:26.752Z,7.82
2016-04-30T05:35:26.568Z,7.89
2016-04-30T05:36:26.695Z,7.84
2016-04-30T05:37:26.511Z,7.93
2016-04-30T05:38:26.638Z,7.9
2016-04-30T05:39:26.610Z,7.84
2016-04-30T05:40:26.596Z,7.94
2016-04-30T05:41:26.552Z,7.87
2016-04-30T05:42:26.382Z,7.92
2016-04-30T05:43:26.354Z,7.92
2016-04-30T05:44:26.185Z,7.9
2016-04-30T05:45:26.470Z,7.94
2016-04-30T05:46:26.426Z,7.89
2016-04-30T05:47:26.240Z,7.94
2016-04-30T05:48:26.368Z,7.94
2016-04-30T05:49:26.684Z,7.93
2016-04-30T05:50:26.311Z,7.96
2016-04-30T05:51:26.298Z,8.08
2016-04-30T05:52:26.269Z,7.99
2016-04-30T05:53:26.100Z,8.1
2016-04-30T05:54:26.212Z,7.96
2016-04-30T05:55:26.183Z,7.97
2016-04-30T05:56:26.170Z,8.08
2016-04-30T05:57:26.127Z,8.04
2016-04-30T05:58:26.114Z,8.03
2016-04-30T05:59:25.929Z,8.12
2016-04-30T06:00:25.901Z,8.11
2016-04-30T06:01:25.887Z,8.11
2016-04-30T06:02:25.999Z,8.14
2016-04-30T06:03:25.831Z,8.02
2016-04-30T06:04:25.942Z,8.15
2016-04-30T06:05:25.774Z,8.17
2016-04-30T06:06:25.901Z,8.12
2016-04-30T06:07:25.888Z,8.15
2016-04-30T06:08:25.844Z,8.18
2016-04-30T06:09:25.830Z,8.28
2016-04-30T06:10:25.787Z,8.28
2016-04-30T06:11:25.774Z,8.29
2016-04-30T06:12:25.589Z,8.29
2016-04-30T06:13:25.716Z,8.39
2016-04-30T06:14:25.688Z,8.42
2016-04-30T06:15:25.659Z,8.47
2016-04-30T06:16:25.646Z,8.54
2016-04-30T06:17:25.618Z,8.54
2016-04-30T06:18:25.589Z,8.63
2016-04-30T06:19:25.404Z,8.65
2016-04-30T06:20:25.532Z,8.62
2016-04-30T06:21:25.504Z,8.63
2016-04-30T06:22:25.490Z,8.69
2016-04-30T06:23:25.456Z,8.75
2016-04-30T06:24:25.459Z,8.78
2016-04-30T06:25:25.414Z,8.71
2016-04-30T06:26:25.386Z,8.73
2016-04-30T06:27:25.358Z,8.71
2016-04-30T06:28:25.330Z,8.66
2016-04-30T06:29:25.316Z,8.83
2016-04-30T06:30:25.272Z,8.88
2016-04-30T06:31:25.260Z,8.88
2016-04-30T06:32:25.231Z,8.78
2016-04-30T06:33:25.061Z,8.91
2016-04-30T06:34:24.908Z,8.87
2016-04-30T06:35:25.145Z,8.81
2016-04-30T06:36:25.132Z,8.97
2016-04-30T06:37:24.947Z,8.94
2016-04-30T06:38:24.918Z,9.02
2016-04-30T06:39:24.906Z,9.01
2016-04-30T06:40:25.018Z,9.01
2016-04-30T06:41:24.849Z,9.02
2016-04-30T06:42:24.820Z,9.1
2016-04-30T06:43:24.948Z,9.15
2016-04-30T06:44:24.934Z,9.1
2016-04-30T06:45:24.890Z,9.09
2016-04-30T06:46:24.862Z,9.04
2016-04-30T06:47:24.848Z,9.09
2016-04-30T06:48:24.680Z,9.1
2016-04-30T06:49:25.104Z,9.15
2016-04-30T06:50:24.607Z,9.23
2016-04-30T06:51:24.751Z,9.18
2016-04-30T06:52:24.722Z,9.25
2016-04-30T06:53:24.536Z,9.34
2016-04-30T06:54:24.681Z,9.25
2016-04-30T06:55:24.637Z,9.27
2016-04-30T06:56:24.623Z,9.3
2016-04-30T06:57:24.438Z,9.31
2016-04-30T06:58:24.410Z,9.32
2016-04-30T06:59:24.381Z,9.43
2016-04-30T07:00:24.369Z,9.42
2016-04-30T07:01:24.356Z,9.39
2016-04-30T07:02:24.311Z,9.52
2016-04-30T07:03:24.439Z,9.52
2016-04-30T07:04:24.302Z,9.52
2016-04-30T07:05:24.413Z,9.57
2016-04-30T07:06:24.368Z,9.67
2016-04-30T07:07:24.357Z,9.67
2016-04-30T07:08:24.327Z,9.71
2016-04-30T07:09:24.299Z,9.75
2016-04-30T07:10:24.130Z,9.76
2016-04-30T07:11:24.242Z,9.86
2016-04-30T07:12:24.088Z,9.82
2016-04-30T07:13:24.044Z,9.96
2016-04-30T07:14:24.015Z,9.89
2016-04-30T07:15:24.143Z,10.07
2016-04-30T07:16:24.131Z,10.03
2016-04-30T07:17:24.118Z,10.19
2016-04-30T07:18:24.073Z,10.22
2016-04-30T07:19:23.904Z,10.24
2016-04-30T07:20:23.875Z,10.19
2016-04-30T07:21:24.003Z,10.33
2016-04-30T07:22:23.818Z,10.36
2016-04-30T07:23:23.790Z,10.37
2016-04-30T07:24:23.933Z,10.44
2016-04-30T07:25:23.905Z,10.46
2016-04-30T07:26:23.720Z,10.44
2016-04-30T07:27:23.847Z,10.43
2016-04-30T07:28:23.834Z,10.47
2016-04-30T07:29:23.650Z,10.53
2016-04-30T07:30:23.794Z,10.51
2016-04-30T07:31:23.764Z,10.6
2016-04-30T07:32:23.736Z,10.63
2016-04-30T07:33:23.707Z,10.59
2016-04-30T07:34:25.225Z,10.6
2016-04-30T07:35:23.682Z,10.6
2016-04-30T07:36:23.481Z,10.74
2016-04-30T07:37:23.452Z,10.78
2016-04-30T07:38:23.440Z,10.71
2016-04-30T07:39:23.568Z,10.86
2016-04-30T07:40:23.538Z,10.83
2016-04-30T07:41:23.369Z,10.89
2016-04-30T07:42:23.513Z,11.02
2016-04-30T07:43:23.484Z,11.1
2016-04-30T07:44:23.456Z,11.14
2016-04-30T07:45:23.115Z,11.14
2016-04-30T07:46:23.398Z,11.31
2016-04-30T07:47:23.370Z,11.29
2016-04-30T07:48:23.201Z,11.38
2016-04-30T07:49:23.751Z,11.36
2016-04-30T07:50:23.315Z,11.52
2016-04-30T07:51:23.303Z,11.56
2016-04-30T07:52:23.273Z,11.54
2016-04-30T07:53:23.245Z,11.65
2016-04-30T07:54:23.217Z,11.7
2016-04-30T07:55:23.048Z,11.72
2016-04-30T07:56:23.175Z,11.8
2016-04-30T07:57:23.147Z,11.83
2016-04-30T07:58:23.134Z,12.06
2016-04-30T07:59:23.105Z,12.19
2016-04-30T08:00:22.920Z,12.19
2016-04-30T08:01:23.064Z,12.3
2016-04-30T08:02:22.894Z,12.27
2016-04-30T08:03:23.007Z,12.6
2016-04-30T08:04:23.400Z,12.6
2016-04-30T08:05:22.668Z,12.6
2016-04-30T08:06:22.952Z,12.6
2016-04-30T08:07:22.923Z,12.74
2016-04-30T08:08:22.896Z,12.62
2016-04-30T08:09:22.883Z,12.78
2016-04-30T08:10:22.713Z,12.81
2016-04-30T08:11:22.840Z,12.88
2016-04-30T08:12:22.812Z,12.92
2016-04-30T08:13:22.799Z,13.04
2016-04-30T08:14:22.770Z,13.09
2016-04-30T08:15:22.757Z,13.07
2016-04-30T08:16:22.745Z,13.15
2016-04-30T08:17:22.545Z,13.15
2016-04-30T08:18:22.531Z,13.33
2016-04-30T08:19:23.909Z,13.44
2016-04-30T08:20:22.490Z,13.51
2016-04-30T08:21:22.617Z,13.52
2016-04-30T08:22:22.604Z,13.59
2016-04-30T08:23:22.420Z,13.61
2016-04-30T08:24:22.564Z,13.61
2016-04-30T08:25:22.379Z,13.73
2016-04-30T08:26:22.522Z,13.65
2016-04-30T08:27:22.492Z,13.74
2016-04-30T08:28:22.465Z,13.83
2016-04-30T08:29:22.452Z,13.77
2016-04-30T08:30:22.282Z,13.7
2016-04-30T08:31:22.411Z,13.54
2016-04-30T08:32:22.381Z,13.51
2016-04-30T08:33:22.369Z,13.67
2016-04-30T08:34:22.636Z,13.69
2016-04-30T08:35:22.327Z,13.69
2016-04-30T08:36:22.329Z,13.67
2016-04-30T08:37:22.286Z,13.67
2016-04-30T08:38:22.257Z,13.71
2016-04-30T08:39:22.259Z,13.56
2016-04-30T08:40:22.215Z,13.56
2016-04-30T08:41:22.202Z,13.46
2016-04-30T08:42:22.174Z,13.41
2016-04-30T08:43:22.160Z,13.3
2016-04-30T08:44:21.976Z,13.15
2016-04-30T08:45:22.135Z,13.07
2016-04-30T08:46:21.935Z,13.02
2016-04-30T08:47:22.078Z,13.03
2016-04-30T08:48:22.065Z,12.96
2016-04-30T08:49:22.959Z,12.88
2016-04-30T08:50:22.009Z,12.78
2016-04-30T08:51:21.979Z,12.84
2016-04-30T08:52:21.967Z,12.82
2016-04-30T08:53:21.938Z,12.7
2016-04-30T08:54:21.769Z,12.64
2016-04-30T08:55:21.896Z,12.57
2016-04-30T08:56:21.883Z,12.66
2016-04-30T08:57:21.855Z,12.64
2016-04-30T08:58:21.670Z,12.64
2016-04-30T08:59:21.813Z,12.59
2016-04-30T09:00:21.800Z,12.6
2016-04-30T09:01:21.772Z,12.59
2016-04-30T09:02:21.744Z,12.44
2016-04-30T09:03:21.714Z,12.46
2016-04-30T09:04:21.561Z,12.46
2016-04-30T09:05:21.674Z,12.24
2016-04-30T09:06:21.505Z,12.3
2016-04-30T09:07:21.632Z,12.2
2016-04-30T09:08:21.619Z,12.34
2016-04-30T09:09:21.591Z,12.34
2016-04-30T09:10:21.562Z,12.34
2016-04-30T09:11:21.548Z,12.29
2016-04-30T09:12:21.379Z,12.49
2016-04-30T09:13:21.507Z,12.34
2016-04-30T09:14:21.479Z,12.49
2016-04-30T09:15:21.450Z,12.56
2016-04-30T09:16:21.437Z,12.63
2016-04-30T09:17:21.409Z,12.66
2016-04-30T09:18:21.396Z,12.66
2016-04-30T09:19:21.507Z,12.57
2016-04-30T09:20:21.370Z,12.6
2016-04-30T09:21:21.170Z,12.62
2016-04-30T09:22:21.313Z,12.75
2016-04-30T09:23:21.284Z,12.82
2016-04-30T09:24:21.256Z,12.88
2016-04-30T09:25:21.087Z,13.04
2016-04-30T09:26:21.215Z,13.22
2016-04-30T09:27:21.200Z,13.33
2016-04-30T09:28:21.188Z,13.36
2016-04-30T09:29:21.159Z,13.18
2016-04-30T09:30:21.131Z,13.12
2016-04-30T09:31:21.102Z,13.22
2016-04-30T09:32:20.933Z,13.33
2016-04-30T09:33:20.936Z,13.36
2016-04-30T09:34:21.939Z,13.49
2016-04-30T09:35:21.050Z,13.58
2016-04-30T09:36:20.992Z,13.52
2016-04-30T09:37:20.994Z,13.56
2016-04-30T09:38:20.808Z,13.62
2016-04-30T09:39:20.936Z,13.51
2016-04-30T09:40:20.768Z,13.54
2016-04-30T09:41:20.896Z,13.58
2016-04-30T09:42:20.882Z,13.65
2016-04-30T09:43:20.854Z,13.69
2016-04-30T09:44:20.840Z,13.73
2016-04-30T09:45:20.828Z,13.71
2016-04-30T09:46:20.643Z,13.74
2016-04-30T09:47:20.770Z,13.79
2016-04-30T09:48:20.758Z,13.83
2016-04-30T09:49:20.635Z,13.95
2016-04-30T09:50:20.700Z,14.07
2016-04-30T09:51:20.548Z,14.09
2016-04-30T09:52:20.675Z,14.02
2016-04-30T09:53:20.646Z,13.96
2016-04-30T09:54:20.618Z,13.92
2016-04-30T09:55:20.620Z,14.07
2016-04-30T09:56:20.576Z,14.04
2016-04-30T09:57:20.250Z,14.04
2016-04-30T09:58:20.534Z,14.21
2016-04-30T09:59:20.522Z,14.32
2016-04-30T10:00:20.493Z,14.46
2016-04-30T10:01:20.480Z,14.31
2016-04-30T10:02:20.467Z,14.5
2016-04-30T10:03:20.439Z,14.57
2016-04-30T10:04:21.083Z,14.72
2016-04-30T10:05:20.397Z,14.54
2016-04-30T10:06:20.369Z,14.6
2016-04-30T10:07:20.371Z,14.69
2016-04-30T10:08:20.343Z,14.81
2016-04-30T10:09:20.314Z,14.88
2016-04-30T10:10:20.285Z,14.91
2016-04-30T10:11:20.288Z,14.93
2016-04-30T10:12:20.244Z,15.05
2016-04-30T10:13:20.231Z,15.02
2016-04-30T10:14:20.063Z,15.01
2016-04-30T10:15:20.190Z,15.03
2016-04-30T10:16:20.021Z,14.95
2016-04-30T10:17:19.992Z,15.03
2016-04-30T10:18:20.135Z,15.06
2016-04-30T10:19:20.716Z,14.87
2016-04-30T10:20:19.953Z,14.88
2016-04-30T10:21:19.925Z,14.98
2016-04-30T10:22:20.052Z,14.94
2016-04-30T10:23:20.040Z,14.99
2016-04-30T10:24:20.012Z,14.95
2016-04-30T10:25:20.014Z,14.98
2016-04-30T10:26:19.969Z,15.02
2016-04-30T10:27:19.801Z,14.94
2016-04-30T10:28:19.943Z,15.02
2016-04-30T10:29:19.775Z,14.98
2016-04-30T10:30:19.887Z,15.03
2016-04-30T10:31:19.717Z,15.02
2016-04-30T10:32:19.876Z,14.98
2016-04-30T10:33:19.832Z,15.02
2016-04-30T10:34:19.975Z,15.15
2016-04-30T10:35:19.791Z,15.19
2016-04-30T10:36:19.621Z,15.06
2016-04-30T10:37:19.750Z,15.02
2016-04-30T10:38:19.736Z,15.01
2016-04-30T10:39:19.567Z,15.02
2016-04-30T10:40:19.695Z,14.99
2016-04-30T10:41:19.666Z,14.69
2016-04-30T10:42:19.497Z,14.81
2016-04-30T10:43:19.641Z,14.86
2016-04-30T10:44:19.611Z,14.94
2016-04-30T10:45:19.599Z,15.01
2016-04-30T10:46:19.414Z,14.9
2016-04-30T10:47:19.401Z,14.95
2016-04-30T10:48:19.544Z,14.86
2016-04-30T10:49:19.610Z,14.71
2016-04-30T10:50:19.346Z,14.72
2016-04-30T10:51:19.474Z,14.67
2016-04-30T10:52:19.289Z,14.62
2016-04-30T10:53:19.449Z,14.74
2016-04-30T10:54:19.436Z,14.78
2016-04-30T10:55:19.235Z,14.87
2016-04-30T10:56:19.379Z,14.83
2016-04-30T10:57:19.350Z,14.9
2016-04-30T10:58:19.337Z,14.86
2016-04-30T10:59:19.152Z,14.81
2016-04-30T11:00:19.139Z,14.86
2016-04-30T11:01:19.267Z,14.91
2016-04-30T11:02:19.253Z,14.8
2016-04-30T11:03:19.226Z,14.62
2016-04-30T11:04:19.228Z,14.72
2016-04-30T11:05:19.214Z,14.81
2016-04-30T11:06:19.187Z,14.52
2016-04-30T11:07:19.158Z,14.47
2016-04-30T11:08:19.144Z,14.43
2016-04-30T11:09:18.992Z,14.35
2016-04-30T11:10:19.104Z,14.42
2016-04-30T11:11:18.919Z,14.35
2016-04-30T11:12:19.061Z,14.2
2016-04-30T11:13:19.033Z,14.16
2016-04-30T11:14:18.855Z,14.17
2016-04-30T11:15:18.994Z,14.09
2016-04-30T11:16:18.970Z,14.19
2016-04-30T11:17:18.968Z,14.14
2016-04-30T11:18:18.924Z,14.14
2016-04-30T11:19:19.240Z,14.16
2016-04-30T11:20:18.743Z,14.12
2016-04-30T11:21:18.870Z,13.87
2016-04-30T11:22:18.701Z,13.81
2016-04-30T11:23:18.828Z,13.84
2016-04-30T11:24:18.643Z,13.81
2016-04-30T11:25:18.787Z,13.76
2016-04-30T11:26:18.758Z,13.76
2016-04-30T11:27:18.729Z,13.76
2016-04-30T11:28:18.732Z,13.71
2016-04-30T11:29:18.687Z,13.71
2016-04-30T11:30:18.675Z,13.73
2016-04-30T11:31:18.647Z,13.77
2016-04-30T11:32:18.633Z,13.69
2016-04-30T11:33:18.620Z,13.77
2016-04-30T11:34:18.451Z,13.69
2016-04-30T11:35:18.579Z,13.77
2016-04-30T11:36:18.567Z,13.88
2016-04-30T11:37:18.366Z,13.92
2016-04-30T11:38:18.508Z,13.95
2016-04-30T11:39:18.480Z,14.07
2016-04-30T11:40:18.483Z,14.19
2016-04-30T11:41:18.282Z,14.13
2016-04-30T11:42:18.427Z,14.2
2016-04-30T11:43:18.397Z,14.37
2016-04-30T11:44:18.385Z,14.25
2016-04-30T11:45:18.356Z,14.43
2016-04-30T11:46:18.344Z,14.44
2016-04-30T11:47:18.330Z,14.67
2016-04-30T11:48:18.301Z,14.78
2016-04-30T11:49:20.273Z,14.9
2016-04-30T11:50:18.260Z,14.9
2016-04-30T11:51:18.232Z,15.02
2016-04-30T11:52:18.218Z,15.01
2016-04-30T11:53:18.206Z,14.95
2016-04-30T11:54:18.176Z,15.06
2016-04-30T11:55:18.148Z,15.15
2016-04-30T11:56:18.135Z,15.28
2016-04-30T11:57:18.107Z,15.42
2016-04-30T11:58:18.094Z,15.49
2016-04-30T11:59:18.081Z,15.43
2016-04-30T12:00:17.896Z,15.48
2016-04-30T12:01:18.024Z,15.72
2016-04-30T12:02:18.027Z,15.75
2016-04-30T12:03:17.997Z,15.81
2016-04-30T12:04:17.844Z,15.85
2016-04-30T12:05:17.817Z,15.89
2016-04-30T12:06:17.787Z,15.86
2016-04-30T12:07:17.931Z,15.89
2016-04-30T12:08:17.903Z,15.86
2016-04-30T12:09:17.889Z,15.85
2016-04-30T12:10:17.860Z,15.85
2016-04-30T12:11:17.832Z,15.79
2016-04-30T12:12:17.819Z,15.89
2016-04-30T12:13:17.806Z,15.92
2016-04-30T12:14:17.777Z,15.85
2016-04-30T12:15:17.608Z,16.03
2016-04-30T12:16:17.752Z,15.86
2016-04-30T12:17:17.723Z,15.97
2016-04-30T12:18:17.694Z,16.06
2016-04-30T12:19:17.869Z,16.11
2016-04-30T12:20:17.669Z,16.3
2016-04-30T12:21:17.499Z,16.3
2016-04-30T12:22:17.627Z,16.41
2016-04-30T12:23:17.457Z,16.45
2016-04-30T12:24:17.601Z,16.41
2016-04-30T12:25:17.573Z,16.5
2016-04-30T12:26:17.404Z,16.52
2016-04-30T12:27:17.376Z,16.52
2016-04-30T12:28:17.362Z,16.33
2016-04-30T12:29:17.490Z,16.31
2016-04-30T12:30:17.477Z,16.25
2016-04-30T12:31:17.448Z,16.34
2016-04-30T12:32:17.450Z,16.34
2016-04-30T12:33:17.406Z,16.38
2016-04-30T12:34:17.425Z,16.41
2016-04-30T12:35:17.381Z,16.34
2016-04-30T12:36:17.196Z,16.26
2016-04-30T12:37:17.339Z,16.23
2016-04-30T12:38:17.338Z,16.03
2016-04-30T12:39:17.365Z,16
2016-04-30T12:40:17.362Z,16.01
2016-04-30T12:41:17.405Z,16.09
2016-04-30T12:42:17.417Z,16.09
2016-04-30T12:43:17.437Z,16.2
2016-04-30T12:44:17.440Z,16.3
2016-04-30T12:45:17.426Z,16.35
2016-04-30T12:46:17.412Z,16.35
2016-04-30T12:47:17.430Z,16.33
2016-04-30T12:48:17.257Z,16.34
2016-04-30T12:49:17.421Z,16.42
2016-04-30T12:50:17.382Z,16.62
2016-04-30T12:51:17.374Z,16.68
2016-04-30T12:52:17.367Z,16.58
2016-04-30T12:53:17.342Z,16.65
2016-04-30T12:54:17.332Z,16.59
2016-04-30T12:55:17.164Z,16.58
2016-04-30T12:56:17.294Z,16.44
2016-04-30T12:57:17.111Z,16.33
2016-04-30T12:58:17.272Z,16.04
2016-04-30T12:59:17.243Z,16.01
2016-04-30T13:00:17.231Z,16
2016-04-30T13:01:17.204Z,16.01
2016-04-30T13:02:17.190Z,16.16
2016-04-30T13:03:17.006Z,16.23
2016-04-30T13:04:17.166Z,16.12
2016-04-30T13:05:16.981Z,16.12
2016-04-30T13:06:16.969Z,16.25
2016-04-30T13:07:17.096Z,16.27
2016-04-30T13:08:16.911Z,16.14
2016-04-30T13:09:17.055Z,15.96